createdAt,value
2022-10-06T00:01:21.463Z,11.13
2022-10-06T00:04:36.651Z,11.11
2022-10-06T00:07:38.645Z,11.04
2022-10-06T00:10:54.646Z,10.99
2022-10-06T00:14:09.641Z,11.09
2022-10-06T00:17:11.535Z,10.98
2022-10-06T00:20:27.639Z,10.98
2022-10-06T00:23:35.648Z,10.97
2022-10-06T00:26:50.642Z,11.01
2022-10-06T00:29:58.629Z,10.96
2022-10-06T00:33:07.211Z,11.00
2022-10-06T00:36:28.712Z,11.02
2022-10-06T00:39:43.647Z,11.02
2022-10-06T00:42:56.055Z,10.99
2022-10-06T00:46:10.710Z,10.95
2022-10-06T00:49:29.679Z,10.94
2022-10-06T00:52:46.648Z,10.89
2022-10-06T00:56:02.648Z,10.87
2022-10-06T00:59:15.651Z,10.78
2022-10-06T01:02:37.741Z,10.78
2022-10-06T01:05:50.937Z,10.75
2022-10-06T01:08:59.177Z,10.67
2022-10-06T01:12:10.640Z,10.55
2022-10-06T01:15:20.909Z,10.60
2022-10-06T01:18:38.666Z,10.58
2022-10-06T01:21:46.632Z,10.49
2022-10-06T01:25:02.652Z,10.44
2022-10-06T01:28:14.708Z,10.41
2022-10-06T01:31:23.996Z,10.37
2022-10-06T01:34:38.636Z,10.32
2022-10-06T01:37:53.651Z,10.30
2022-10-06T01:41:08.630Z,10.28
2022-10-06T01:44:16.645Z,10.24
2022-10-06T01:47:31.648Z,10.12
2022-10-06T01:50:47.684Z,10.16
2022-10-06T01:53:55.661Z,10.08
2022-10-06T01:57:08.550Z,10.09
2022-10-06T02:00:18.643Z,10.06
2022-10-06T02:03:27.229Z,10.06
2022-10-06T02:06:35.684Z,9.99
2022-10-06T02:09:44.185Z,9.97
2022-10-06T02:12:59.663Z,9.98
2022-10-06T02:16:07.694Z,9.84
2022-10-06T02:19:22.622Z,9.91
2022-10-06T02:22:30.664Z,9.83
2022-10-06T02:25:45.636Z,9.80
2022-10-06T02:28:54.300Z,9.77
2022-10-06T02:32:02.670Z,9.76
2022-10-06T02:35:24.658Z,9.74
2022-10-06T02:38:39.647Z,9.73
2022-10-06T02:41:54.661Z,9.69
2022-10-06T02:45:05.478Z,9.72
2022-10-06T02:48:14.663Z,9.75
2022-10-06T02:51:23.722Z,9.66
2022-10-06T02:54:31.649Z,9.68
2022-10-06T02:57:46.653Z,9.66
2022-10-06T03:00:48.527Z,9.65
2022-10-06T03:04:03.631Z,9.61
2022-10-06T03:07:11.665Z,9.64
2022-10-06T03:10:20.556Z,9.63
2022-10-06T03:13:28.670Z,9.58
2022-10-06T03:16:46.645Z,9.59
2022-10-06T03:19:48.535Z,9.53
2022-10-06T03:23:03.653Z,9.57
2022-10-06T03:26:05.492Z,9.54
2022-10-06T03:29:20.641Z,9.47
2022-10-06T03:32:35.634Z,9.43
2022-10-06T03:35:43.878Z,9.40
2022-10-06T03:38:59.653Z,9.38
2022-10-06T03:42:07.661Z,9.37
2022-10-06T03:45:16.326Z,9.31
2022-10-06T03:48:24.645Z,9.29
2022-10-06T03:51:39.030Z,9.27
2022-10-06T03:54:53.649Z,9.22
2022-10-06T03:58:01.653Z,9.17
2022-10-06T04:01:26.183Z,9.20
2022-10-06T04:04:41.638Z,9.16
2022-10-06T04:07:56.665Z,9.20
2022-10-06T04:11:18.633Z,9.17
2022-10-06T04:14:27.240Z,9.20
2022-10-06T04:17:35.652Z,9.16
2022-10-06T04:20:44.142Z,9.17
2022-10-06T04:24:00.641Z,9.18
2022-10-06T04:27:02.452Z,9.17
2022-10-06T04:30:18.632Z,9.14
2022-10-06T04:33:26.658Z,9.04
2022-10-06T04:36:49.654Z,9.14
2022-10-06T04:40:02.020Z,9.08
2022-10-06T04:43:23.694Z,9.04
2022-10-06T04:46:49.184Z,9.01
2022-10-06T04:50:03.629Z,8.97
2022-10-06T04:53:12.717Z,9.07
2022-10-06T04:56:33.669Z,9.07
2022-10-06T04:59:48.680Z,9.04
2022-10-06T05:02:57.149Z,9.06
2022-10-06T05:06:42.640Z,9.07
2022-10-06T05:09:57.651Z,9.04
2022-10-06T05:12:59.397Z,9.03
2022-10-06T05:16:17.652Z,9.07
2022-10-06T05:19:32.647Z,9.11
2022-10-06T05:22:34.364Z,9.16
2022-10-06T05:25:57.633Z,9.20
2022-10-06T05:29:12.629Z,9.21
2022-10-06T05:32:14.448Z,9.27
2022-10-06T05:35:29.623Z,9.32
2022-10-06T05:38:39.342Z,9.43
2022-10-06T05:41:53.656Z,9.58
2022-10-06T05:45:02.193Z,9.70
2022-10-06T05:48:11.645Z,9.86
2022-10-06T05:51:30.553Z,9.99
2022-10-06T05:54:45.623Z,10.14
2022-10-06T05:58:01.664Z,10.32
2022-10-06T06:01:07.346Z,10.49
2022-10-06T06:04:21.694Z,10.61
2022-10-06T06:07:36.651Z,10.70
2022-10-06T06:10:39.179Z,10.76
2022-10-06T06:13:53.626Z,10.87
2022-10-06T06:17:08.680Z,10.94
2022-10-06T06:20:23.633Z,10.99
2022-10-06T06:23:30.265Z,11.06
2022-10-06T06:26:45.636Z,11.10
2022-10-06T06:29:47.529Z,11.13
2022-10-06T06:33:02.648Z,11.13
2022-10-06T06:36:19.166Z,11.16
2022-10-06T06:39:27.650Z,11.15
2022-10-06T06:42:36.127Z,11.17
2022-10-06T06:45:44.931Z,11.19
2022-10-06T06:48:55.622Z,11.26
2022-10-06T06:52:11.632Z,11.30
2022-10-06T06:55:19.657Z,11.34
2022-10-06T06:58:28.825Z,11.39
2022-10-06T07:01:48.784Z,11.46
2022-10-06T07:04:57.667Z,11.53
2022-10-06T07:08:07.751Z,11.61
2022-10-06T07:11:27.643Z,11.68
2022-10-06T07:14:35.653Z,11.70
2022-10-06T07:17:44.308Z,11.75
2022-10-06T07:20:52.640Z,11.81
2022-10-06T07:24:07.674Z,11.86
2022-10-06T07:27:16.203Z,11.94
2022-10-06T07:30:28.656Z,12.35
2022-10-06T07:33:37.127Z,12.71
2022-10-06T07:36:51.636Z,13.23
2022-10-06T07:40:00.719Z,13.51
2022-10-06T07:43:15.846Z,13.87
2022-10-06T07:46:24.728Z,14.02
2022-10-06T07:49:33.527Z,14.44
2022-10-06T07:52:41.631Z,14.79
2022-10-06T07:55:56.653Z,15.07
2022-10-06T07:59:06.103Z,15.31
2022-10-06T08:02:15.743Z,15.57
2022-10-06T08:05:24.247Z,15.65
2022-10-06T08:08:33.647Z,15.71
2022-10-06T08:11:48.620Z,15.91
2022-10-06T08:15:07.063Z,16.00
2022-10-06T08:18:44.349Z,16.26
2022-10-06T08:22:02.403Z,16.54
2022-10-06T08:25:19.630Z,16.76
2022-10-06T08:28:34.726Z,16.94
2022-10-06T08:31:43.305Z,17.30
2022-10-06T08:34:58.243Z,17.52
2022-10-06T08:38:13.669Z,17.65
2022-10-06T08:41:25.351Z,17.75
2022-10-06T08:44:47.649Z,17.38
2022-10-06T08:48:28.705Z,17.03
2022-10-06T08:52:00.343Z,17.19
2022-10-06T08:55:52.681Z,17.26
2022-10-06T08:59:10.657Z,17.58
2022-10-06T09:02:29.101Z,17.84
2022-10-06T09:05:43.661Z,18.05
2022-10-06T09:08:59.652Z,18.06
2022-10-06T09:12:14.149Z,18.00
2022-10-06T09:15:50.702Z,18.15
2022-10-06T09:19:13.864Z,18.43
2022-10-06T09:22:27.733Z,18.49
2022-10-06T09:25:44.717Z,18.80
2022-10-06T09:28:46.887Z,18.82
2022-10-06T09:32:01.763Z,19.14
2022-10-06T09:35:28.680Z,19.30
2022-10-06T09:38:52.669Z,19.57
2022-10-06T09:42:03.878Z,19.85
2022-10-06T09:45:31.652Z,20.15
2022-10-06T09:48:46.654Z,20.15
2022-10-06T09:52:21.668Z,19.99
2022-10-06T09:55:32.672Z,19.78
2022-10-06T09:59:00.695Z,19.80
2022-10-06T10:02:41.685Z,19.67
2022-10-06T10:05:58.665Z,19.80
2022-10-06T10:09:25.679Z,19.76
2022-10-06T10:12:40.659Z,19.74
2022-10-06T10:16:01.032Z,19.77
2022-10-06T10:19:33.651Z,19.97
2022-10-06T10:22:47.693Z,19.88
2022-10-06T10:26:04.414Z,19.95
2022-10-06T10:29:37.661Z,20.01
2022-10-06T10:33:02.703Z,20.14
2022-10-06T10:36:18.952Z,20.35
2022-10-06T10:39:42.691Z,20.28
2022-10-06T10:43:03.698Z,20.42
2022-10-06T10:46:22.712Z,20.72
2022-10-06T10:49:40.698Z,20.77
2022-10-06T10:52:45.744Z,20.72
2022-10-06T10:56:00.687Z,20.50
2022-10-06T10:59:24.840Z,20.22
2022-10-06T11:02:34.689Z,20.04
2022-10-06T11:06:25.401Z,20.17
2022-10-06T11:09:59.693Z,20.07
2022-10-06T11:13:37.692Z,19.96
2022-10-06T11:17:12.569Z,19.89
2022-10-06T11:20:44.712Z,19.79
2022-10-06T11:24:02.941Z,19.63
2022-10-06T11:27:33.697Z,19.46
2022-10-06T11:30:59.668Z,19.36
2022-10-06T11:34:16.665Z,19.29
2022-10-06T11:37:27.964Z,19.32
2022-10-06T11:40:54.686Z,19.49
2022-10-06T11:44:33.701Z,19.70
2022-10-06T11:47:56.053Z,19.72
2022-10-06T11:51:40.684Z,19.59
2022-10-06T11:55:22.674Z,19.59
2022-10-06T11:58:41.850Z,19.58
2022-10-06T12:01:52.806Z,19.57
2022-10-06T12:05:54.861Z,19.62
2022-10-06T12:08:47.693Z,19.66
2022-10-06T12:11:56.167Z,19.93
2022-10-06T12:20:12.718Z,20.03
2022-10-06T12:23:48.757Z,20.08
2022-10-06T12:27:36.684Z,20.19
2022-10-06T12:31:17.845Z,20.09
2022-10-06T12:34:56.940Z,19.96
2022-10-06T12:38:32.810Z,19.90
2022-10-06T12:42:08.680Z,19.84
2022-10-06T12:45:17.198Z,19.83
2022-10-06T12:48:37.694Z,19.77
2022-10-06T12:51:48.682Z,19.87
2022-10-06T12:55:06.427Z,19.98
2022-10-06T12:58:36.677Z,19.99
2022-10-06T13:01:44.718Z,20.07
2022-10-06T13:05:02.473Z,20.09
2022-10-06T13:08:30.721Z,20.00
2022-10-06T13:11:32.642Z,20.06
2022-10-06T13:14:48.712Z,20.20
2022-10-06T13:18:17.090Z,20.28
2022-10-06T13:21:25.705Z,20.36
2022-10-06T13:24:40.692Z,20.32
2022-10-06T13:27:49.355Z,20.19
2022-10-06T13:31:09.685Z,20.10
2022-10-06T13:34:33.686Z,20.08
2022-10-06T13:37:42.167Z,19.98
2022-10-06T13:41:29.729Z,19.88
2022-10-06T13:44:39.107Z,19.83
2022-10-06T13:47:53.696Z,19.71
2022-10-06T13:51:01.675Z,19.61
2022-10-06T13:54:51.703Z,19.61
2022-10-06T13:58:09.214Z,19.59
2022-10-06T14:01:37.753Z,19.62
2022-10-06T14:04:45.757Z,19.65
2022-10-06T14:08:04.702Z,19.72
2022-10-06T14:11:13.273Z,19.77
2022-10-06T14:14:23.697Z,19.89
2022-10-06T14:17:32.238Z,19.90
2022-10-06T14:20:52.701Z,19.80
2022-10-06T14:24:10.140Z,19.77
2022-10-06T14:27:24.743Z,19.70
2022-10-06T14:30:39.761Z,19.64
2022-10-06T14:33:56.695Z,19.57
2022-10-06T14:37:11.718Z,19.53
2022-10-06T14:40:20.204Z,19.47
2022-10-06T14:43:28.706Z,19.41
2022-10-06T14:46:45.758Z,19.37
2022-10-06T14:49:54.340Z,19.35
2022-10-06T14:53:02.751Z,19.32
2022-10-06T14:56:18.710Z,19.29
2022-10-06T14:59:27.862Z,19.21
2022-10-06T15:02:42.799Z,19.10
2022-10-06T15:05:57.721Z,19.03
2022-10-06T15:08:59.665Z,18.92
2022-10-06T15:12:14.733Z,18.80
2022-10-06T15:15:29.724Z,18.73
2022-10-06T15:18:32.930Z,18.56
2022-10-06T15:21:49.723Z,18.55
2022-10-06T15:25:04.732Z,18.44
2022-10-06T15:28:13.823Z,18.28
2022-10-06T15:31:30.872Z,18.22
2022-10-06T15:34:45.728Z,18.15
2022-10-06T15:37:53.955Z,18.08
2022-10-06T15:41:09.731Z,18.00
2022-10-06T15:44:19.330Z,17.90
2022-10-06T15:47:27.712Z,17.93
2022-10-06T15:50:43.733Z,17.86
2022-10-06T15:53:45.476Z,17.78
2022-10-06T15:57:02.749Z,17.71
2022-10-06T16:00:18.850Z,17.64
2022-10-06T16:03:20.632Z,17.64
2022-10-06T16:06:35.708Z,17.65
2022-10-06T16:09:43.028Z,17.82
2022-10-06T16:12:58.728Z,17.89
2022-10-06T16:16:00.584Z,17.97
2022-10-06T16:19:15.732Z,18.02
2022-10-06T16:22:30.741Z,17.91
2022-10-06T16:25:45.736Z,17.99
2022-10-06T16:28:54.738Z,18.07
2022-10-06T16:32:03.303Z,18.07
2022-10-06T16:35:18.564Z,18.02
2022-10-06T16:38:26.992Z,18.00
2022-10-06T16:41:41.826Z,18.08
2022-10-06T16:44:56.730Z,18.01
2022-10-06T16:48:05.367Z,17.87
2022-10-06T16:51:18.752Z,17.89
2022-10-06T16:54:27.332Z,17.84
2022-10-06T16:57:41.739Z,17.76
2022-10-06T17:00:50.851Z,17.60
2022-10-06T17:04:10.808Z,17.56
2022-10-06T17:07:25.739Z,17.46
2022-10-06T17:10:27.628Z,17.37
2022-10-06T17:13:48.743Z,17.27
2022-10-06T17:16:58.103Z,17.19
2022-10-06T17:20:12.761Z,17.12
2022-10-06T17:23:20.751Z,17.04
2022-10-06T17:26:40.758Z,17.01
2022-10-06T17:29:49.751Z,17.00
2022-10-06T17:32:58.294Z,16.92
2022-10-06T17:36:13.747Z,16.94
2022-10-06T17:39:29.774Z,16.97
2022-10-06T17:42:38.482Z,16.95
2022-10-06T17:45:53.806Z,16.99
2022-10-06T17:49:04.288Z,17.04
2022-10-06T17:52:23.936Z,17.08
2022-10-06T17:55:42.013Z,17.05
2022-10-06T17:58:56.007Z,17.12
2022-10-06T18:02:11.169Z,17.13
2022-10-06T18:05:28.479Z,17.16
2022-10-06T18:08:34.428Z,17.07
2022-10-06T18:11:50.007Z,17.04
2022-10-06T18:14:58.227Z,16.91
2022-10-06T18:18:06.761Z,16.95
2022-10-06T18:21:15.882Z,16.95
2022-10-06T18:24:26.759Z,16.94
2022-10-06T18:27:41.976Z,16.91
2022-10-06T18:30:50.965Z,16.90
2022-10-06T18:37:42.365Z,16.75
2022-10-06T18:40:57.253Z,16.63
2022-10-06T18:44:11.804Z,16.51
2022-10-06T18:47:15.333Z,16.39
2022-10-06T18:50:33.738Z,16.25
2022-10-06T18:53:41.759Z,16.16
2022-10-06T18:56:58.119Z,16.14
2022-10-06T19:00:08.693Z,16.11
2022-10-06T19:03:17.855Z,16.07
2022-10-06T19:06:29.102Z,15.95
2022-10-06T19:09:46.915Z,15.90
2022-10-06T19:12:55.813Z,15.96
2022-10-06T19:16:04.836Z,16.10
2022-10-06T19:19:16.135Z,16.14
2022-10-06T19:22:24.459Z,16.13
2022-10-06T19:25:39.944Z,15.96
2022-10-06T19:28:49.130Z,15.85
2022-10-06T19:31:59.043Z,15.72
2022-10-06T19:35:14.105Z,15.62
2022-10-06T19:38:31.143Z,15.54
2022-10-06T19:41:39.962Z,15.52
2022-10-06T19:44:48.771Z,15.48
2022-10-06T19:48:03.763Z,15.45
2022-10-06T19:51:17.608Z,15.40
2022-10-06T19:54:25.747Z,15.33
2022-10-06T19:57:41.985Z,15.34
2022-10-06T20:00:50.494Z,15.33
2022-10-06T20:04:05.853Z,15.28
2022-10-06T20:07:14.245Z,15.24
2022-10-06T20:10:22.773Z,15.23
2022-10-06T20:13:42.745Z,15.19
2022-10-06T20:16:52.993Z,15.14
2022-10-06T20:20:01.749Z,15.12
2022-10-06T20:23:10.242Z,15.11
2022-10-06T20:26:21.756Z,15.10
2022-10-06T20:29:36.751Z,15.10
2022-10-06T20:32:44.807Z,15.16
2022-10-06T20:35:53.229Z,15.16
2022-10-06T20:39:17.756Z,15.13
2022-10-06T20:42:21.128Z,15.12
2022-10-06T20:45:35.756Z,15.10
2022-10-06T20:48:50.775Z,15.09
2022-10-06T20:51:59.291Z,15.15
2022-10-06T20:55:14.774Z,15.26
2022-10-06T20:58:29.758Z,15.26
2022-10-06T21:01:39.458Z,15.28
2022-10-06T21:04:47.848Z,15.28
2022-10-06T21:07:56.369Z,15.27
2022-10-06T21:11:10.849Z,15.28
2022-10-06T21:14:20.884Z,15.25
2022-10-06T21:17:29.551Z,15.25
2022-10-06T21:20:46.924Z,15.25
2022-10-06T21:23:48.815Z,15.23
2022-10-06T21:27:03.832Z,15.18
2022-10-06T21:30:18.839Z,15.13
2022-10-06T21:33:27.869Z,15.05
2022-10-06T21:36:49.836Z,15.04
2022-10-06T21:40:04.860Z,15.03
2022-10-06T21:43:20.860Z,15.00
2022-10-06T21:46:40.947Z,14.95
2022-10-06T21:49:49.864Z,14.85
2022-10-06T21:52:58.399Z,14.82
2022-10-06T21:56:06.852Z,14.88
2022-10-06T21:59:21.880Z,14.86
2022-10-06T22:02:23.847Z,14.72
2022-10-06T22:05:41.852Z,14.73
2022-10-06T22:08:50.873Z,14.71
2022-10-06T22:12:05.855Z,14.68
2022-10-06T22:15:14.857Z,14.63
2022-10-06T22:18:23.710Z,14.62
2022-10-06T22:21:41.863Z,14.61
2022-10-06T22:24:56.869Z,14.61
2022-10-06T22:28:05.495Z,14.63
2022-10-06T22:31:25.529Z,14.61
2022-10-06T22:34:36.721Z,14.59
2022-10-06T22:37:51.851Z,14.52
2022-10-06T22:41:01.883Z,14.60
2022-10-06T22:44:16.848Z,14.57
2022-10-06T22:47:24.879Z,14.52
2022-10-06T22:50:33.441Z,14.44
2022-10-06T22:53:41.871Z,14.40
2022-10-06T22:56:50.329Z,14.28
2022-10-06T23:00:04.870Z,14.30
2022-10-06T23:03:07.479Z,14.26
2022-10-06T23:06:23.873Z,14.20
2022-10-06T23:09:31.849Z,14.26
2022-10-06T23:12:40.439Z,14.14
2022-10-06T23:15:54.882Z,14.16
2022-10-06T23:19:03.476Z,14.15
2022-10-06T23:22:11.845Z,14.17
2022-10-06T23:25:27.439Z,14.12
2022-10-06T23:28:35.893Z,14.09
2022-10-06T23:31:50.950Z,14.01
2022-10-06T23:34:59.401Z,13.95
2022-10-06T23:38:20.889Z,13.89
2022-10-06T23:41:35.867Z,13.88
2022-10-06T23:44:44.425Z,13.88
2022-10-06T23:47:52.861Z,13.78
2022-10-06T23:51:04.290Z,13.84
2022-10-06T23:54:18.864Z,13.84
2022-10-06T23:57:20.763Z,13.77
